Time;durP1;ratioP1;P1;durP2;ratioP2;P2;SDS_P1;SDS_P2;PMS_P1;PMS_P2;Temp;Humidity;BMP_temperature;BMP_pressure;BME280_temperature;BME280_humidity;BME280_pressure;Samples;Min_cycle;Max_cycle;Signal;HPM_P1;HPM_P2
2023/09/06 00:03:04;;;;;;;2.10;1.20;;;;;;;22.49;58.84;100577.03;10348284;28;20049;-65
2023/09/06 00:08:08;;;;;;;3.65;1.30;;;;;;;22.37;59.18;100561.31;10354802;28;20080;-67
2023/09/06 00:13:10;;;;;;;;;;;;;;;22.41;59.36;100576.16;10354961;28;20064;-66
2023/09/06 00:18:11;;;;;;;2.17;0.70;;;;;;;22.32;59.83;100568.31;10348321;28;19929;-67
2023/09/06 00:23:14;;;;;;;2.78;1.10;;;;;;;22.33;59.80;100567.31;10355168;28;20137;-65
2023/09/06 00:28:17;;;;;;;2.10;1.10;;;;;;;22.23;59.80;100560.31;10350274;28;20068;-67
2023/09/06 00:33:18;;;;;;;3.38;1.50;;;;;;;22.21;59.91;100565.06;10340593;28;20054;-67
2023/09/06 00:38:20;;;;;;;5.57;1.70;;;;;;;22.17;60.10;100568.34;10337432;28;20101;-68
2023/09/06 00:43:24;;;;;;;1.95;1.33;;;;;;;22.12;60.16;100563.50;10350246;28;20416;-68
2023/09/06 00:48:26;;;;;;;2.40;1.48;;;;;;;22.03;60.86;100559.25;10352960;28;20061;-65
2023/09/06 00:53:30;;;;;;;3.03;1.35;;;;;;;22.04;60.69;100559.03;10354667;28;20049;-66
2023/09/06 00:58:32;;;;;;;1.87;1.30;;;;;;;21.96;60.81;100544.75;10346219;28;20057;-67
2023/09/06 01:03:33;;;;;;;1.98;1.20;;;;;;;21.96;60.72;100550.19;10338557;28;20115;-67
2023/09/06 01:08:39;;;;;;;2.13;1.52;;;;;;;21.90;60.96;100551.78;10341859;28;20072;-68
2023/09/06 01:13:40;;;;;;;3.10;1.33;;;;;;;21.78;60.93;100537.88;10350211;28;20204;-67
2023/09/06 01:18:42;;;;;;;2.53;1.13;;;;;;;21.75;60.95;100540.16;10354427;28;20152;-69
2023/09/06 01:23:46;;;;;;;2.15;1.25;;;;;;;21.74;61.42;100552.88;10350058;28;20060;-67
2023/09/06 01:28:49;;;;;;;;;;;;;;;21.68;62.08;100556.34;10351423;28;20057;-67
2023/09/06 01:33:50;;;;;;;2.30;1.60;;;;;;;21.57;61.84;100537.84;10355535;28;19936;-66
2023/09/06 01:38:52;;;;;;;4.25;1.77;;;;;;;21.56;61.61;100553.25;10351557;28;20065;-66
2023/09/06 01:43:54;;;;;;;3.30;2.15;;;;;;;21.53;62.20;100545.50;10351869;28;20065;-68
2023/09/06 01:48:59;;;;;;;3.70;2.03;;;;;;;21.38;62.73;100529.25;10349264;28;20041;-68
2023/09/06 01:54:04;;;;;;;1.75;1.60;;;;;;;21.38;62.92;100542.78;10351381;28;20387;-65
2023/09/06 01:59:06;;;;;;;3.83;2.05;;;;;;;21.26;62.97;100528.00;10350351;28;20194;-66
2023/09/06 02:04:07;;;;;;;2.85;1.70;;;;;;;21.28;62.98;100531.41;10352818;28;20568;-66
2023/09/06 02:09:09;;;;;;;3.22;1.98;;;;;;;21.21;63.18;100530.47;10348585;28;20057;-68
2023/09/06 02:14:10;;;;;;;2.95;2.10;;;;;;;21.15;63.16;100538.31;10350283;28;20062;-68
2023/09/06 02:19:12;;;;;;;3.72;1.92;;;;;;;21.03;63.58;100526.25;10345513;28;20053;-65
2023/09/06 02:24:13;;;;;;;2.10;1.90;;;;;;;21.02;63.73;100538.94;10340009;28;20136;-66
2023/09/06 02:29:15;;;;;;;1.95;1.70;;;;;;;20.99;63.88;100544.72;10336111;28;20441;-68
2023/09/06 02:34:17;;;;;;;3.35;1.88;;;;;;;20.95;64.02;100553.41;10349447;28;20061;-64
2023/09/06 02:39:19;;;;;;;2.53;1.63;;;;;;;20.87;64.37;100550.75;10351118;28;20286;-67
2023/09/06 02:44:20;;;;;;;2.80;1.75;;;;;;;20.86;64.04;100554.50;10336303;28;20046;-67
2023/09/06 02:49:26;;;;;;;2.25;1.67;;;;;;;20.86;64.15;100557.22;10346047;28;20188;-66
2023/09/06 02:54:29;;;;;;;3.13;1.45;;;;;;;20.63;64.25;100533.72;10348900;28;20216;-66
2023/09/06 02:59:31;;;;;;;2.10;1.58;;;;;;;20.76;64.14;100561.03;10348646;28;20056;-66
2023/09/06 03:04:37;;;;;;;1.90;1.55;;;;;;;20.69;64.54;100549.25;10336020;28;20054;-67
2023/09/06 03:09:39;;;;;;;6.40;1.42;;;;;;;20.70;64.30;100550.91;10344703;28;20057;-66
2023/09/06 03:14:44;;;;;;;1.90;1.15;;;;;;;20.75;64.46;100550.38;10348267;28;20338;-67
2023/09/06 03:19:48;;;;;;;3.70;1.70;;;;;;;20.63;64.52;100548.06;10338945;28;20278;-68
2023/09/06 03:24:55;;;;;;;2.63;1.50;;;;;;;20.63;64.75;100549.94;10349619;28;20684;-67
2023/09/06 03:29:57;;;;;;;2.03;1.58;;;;;;;20.62;64.70;100561.78;10350578;28;20410;-66
2023/09/06 03:34:58;;;;;;;2.08;1.33;;;;;;;20.58;64.85;100555.03;10347350;28;20173;-67
2023/09/06 03:40:00;;;;;;;2.08;1.45;;;;;;;20.55;64.85;100558.13;10344312;28;20191;-66
2023/09/06 03:45:03;;;;;;;1.60;1.50;;;;;;;20.53;65.22;100563.69;10345998;28;20141;-68
2023/09/06 03:50:05;;;;;;;4.43;1.83;;;;;;;20.49;65.16;100565.09;10347494;28;20116;-64
2023/09/06 03:55:09;;;;;;;2.40;1.60;;;;;;;20.45;65.15;100558.38;10333266;28;20480;-65
2023/09/06 04:00:26;;;;;;;2.00;1.80;;;;;;;20.44;65.54;100562.09;10346712;28;20413;-66
2023/09/06 04:05:29;;;;;;;4.15;1.88;;;;;;;20.44;65.47;100571.03;10333262;28;20256;-66
2023/09/06 04:10:36;;;;;;;2.53;1.50;;;;;;;20.47;65.34;100572.53;10346094;28;20589;-66
2023/09/06 04:15:38;;;;;;;2.53;1.98;;;;;;;20.24;65.30;100540.94;10327865;28;20140;-67
2023/09/06 04:20:46;;;;;;;2.17;1.70;;;;;;;20.45;64.95;100574.59;10349112;28;20123;-65
2023/09/06 04:25:47;;;;;;;2.50;1.75;;;;;;;20.38;65.47;100574.47;10344394;28;20549;-67
2023/09/06 04:30:49;;;;;;;3.22;2.20;;;;;;;20.33;65.69;100571.47;10332125;28;20176;-67
2023/09/06 04:35:51;;;;;;;2.33;1.98;;;;;;;20.36;65.54;100592.72;10347021;28;20392;-68
2023/09/06 04:40:52;;;;;;;4.43;2.13;;;;;;;20.31;65.86;100595.13;10345390;28;20157;-67
2023/09/06 04:45:54;;;;;;;3.08;2.35;;;;;;;20.14;65.72;100579.00;10347108;28;20359;-65
2023/09/06 04:50:57;;;;;;;3.35;1.95;;;;;;;20.21;65.96;100595.38;10350525;28;20160;-68
2023/09/06 04:56:00;;;;;;;2.95;2.20;;;;;;;20.19;66.10;100599.25;10341210;28;20170;-68
2023/09/06 05:01:10;;;;;;;4.32;2.20;;;;;;;20.16;66.21;100611.25;10355449;28;20867;-68
2023/09/06 05:06:12;;;;;;;3.78;2.22;;;;;;;20.14;66.32;100603.31;10346026;28;20528;-67
2023/09/06 05:11:15;;;;;;;2.97;2.10;;;;;;;20.11;66.24;100611.78;10325390;28;20057;-67
2023/09/06 05:16:17;;;;;;;3.65;2.25;;;;;;;20.03;66.35;100611.84;10333786;28;20056;-66
2023/09/06 05:21:18;;;;;;;2.85;2.00;;;;;;;19.98;67.35;100619.63;10341022;28;20049;-65
2023/09/06 05:26:20;;;;;;;2.95;2.03;;;;;;;19.82;67.21;100601.66;10345920;28;20098;-66
2023/09/06 05:31:22;;;;;;;4.45;1.73;;;;;;;19.78;67.67;100609.25;10345482;28;20402;-68
2023/09/06 05:36:24;;;;;;;4.68;2.00;;;;;;;19.84;68.00;100621.22;10345905;28;20057;-67
2023/09/06 05:41:25;;;;;;;4.03;2.15;;;;;;;19.84;67.79;100625.78;10339122;28;20248;-67
2023/09/06 05:46:26;;;;;;;2.78;2.20;;;;;;;19.83;67.67;100624.94;10328101;28;20060;-67
2023/09/06 05:51:35;;;;;;;6.28;2.72;;;;;;;19.75;67.72;100617.66;10348320;28;20435;-67
2023/09/06 05:56:36;;;;;;;3.83;2.35;;;;;;;19.82;67.93;100627.81;10327532;28;20126;-68
2023/09/06 06:01:37;;;;;;;2.85;1.92;;;;;;;19.80;67.43;100617.16;10345619;28;20140;-66
2023/09/06 06:06:41;;;;;;;3.80;2.47;;;;;;;19.97;67.29;100636.88;10329379;28;20053;-66
2023/09/06 06:11:42;;;;;;;2.83;2.00;;;;;;;19.93;67.24;100593.13;10343156;28;20167;-67
2023/09/06 06:16:44;;;;;;;4.40;2.33;;;;;;;20.28;66.41;100633.31;10341501;28;20079;-66
2023/09/06 06:21:47;;;;;;;2.40;2.15;;;;;;;20.17;65.75;100641.84;10339376;28;20052;-65
2023/09/06 06:26:49;;;;;;;5.32;2.30;;;;;;;20.33;66.21;100647.16;10342339;28;20053;-65
2023/09/06 06:31:51;;;;;;;3.05;2.10;;;;;;;20.53;66.27;100646.69;10315202;28;20064;-66
2023/09/06 06:36:52;;;;;;;3.10;2.60;;;;;;;20.69;65.99;100646.63;10327090;28;20222;-66
2023/09/06 06:41:54;;;;;;;3.22;2.55;;;;;;;20.87;65.21;100656.28;10324953;28;20130;-65
2023/09/06 06:46:56;;;;;;;3.55;3.05;;;;;;;21.02;65.02;100651.75;10338034;28;20409;-65
2023/09/06 06:51:57;;;;;;;2.60;1.88;;;;;;;21.15;63.71;100652.00;10336924;28;20653;-66
2023/09/06 06:56:59;;;;;;;3.25;1.90;;;;;;;21.29;62.93;100646.78;10339632;28;20212;-66
2023/09/06 07:02:00;;;;;;;3.33;2.30;;;;;;;21.44;62.27;100655.75;10338128;28;20413;-66
2023/09/06 07:07:03;;;;;;;3.00;2.03;;;;;;;21.60;61.39;100659.34;10337642;28;20054;-65
2023/09/06 07:12:05;;;;;;;4.90;1.80;;;;;;;21.74;60.93;100655.81;10335255;28;20054;-67
2023/09/06 07:17:06;;;;;;;3.42;2.20;;;;;;;21.84;60.66;100659.09;10322614;28;20205;-67
2023/09/06 07:22:08;;;;;;;2.78;2.35;;;;;;;22.00;59.84;100665.31;10316401;28;20049;-66
2023/09/06 07:27:10;;;;;;;2.70;2.20;;;;;;;22.16;59.06;100669.69;10339168;28;20325;-65
2023/09/06 07:32:11;;;;;;;3.40;2.00;;;;;;;22.31;58.65;100667.81;10338738;28;20058;-66
2023/09/06 07:37:12;;;;;;;3.75;2.40;;;;;;;22.52;58.10;100672.44;10338059;28;21087;-66
2023/09/06 07:42:14;;;;;;;4.32;2.35;;;;;;;22.71;57.32;100686.41;10337536;28;20045;-65
2023/09/06 07:47:15;;;;;;;4.13;2.55;;;;;;;22.80;57.49;100696.09;10343131;28;20076;-65
2023/09/06 07:52:16;;;;;;;3.92;2.53;;;;;;;22.92;57.30;100685.56;10339926;28;20057;-65
2023/09/06 07:57:19;;;;;;;4.35;2.60;;;;;;;23.19;56.63;100696.69;10343477;28;20076;-64
2023/09/06 08:02:21;;;;;;;2.42;2.20;;;;;;;23.25;56.54;100693.19;10327229;28;20050;-67
2023/09/06 08:07:22;;;;;;;3.53;2.38;;;;;;;23.43;55.26;100695.44;10344903;28;20064;-65
2023/09/06 08:12:25;;;;;;;3.90;1.95;;;;;;;23.54;55.53;100686.75;10319140;28;20062;-64
2023/09/06 08:17:27;;;;;;;2.53;2.10;;;;;;;23.81;54.28;100706.78;10338890;28;20451;-65
2023/09/06 08:22:28;;;;;;;3.20;2.53;;;;;;;23.95;54.25;100715.03;10320482;28;21153;-64
2023/09/06 08:27:45;;;;;;;5.55;2.40;;;;;;;23.99;54.50;100698.13;10348553;28;20045;-65
2023/09/06 08:32:49;;;;;;;2.80;2.60;;;;;;;24.18;53.03;100695.69;10363113;28;20056;-66
2023/09/06 08:37:51;;;;;;;3.75;2.20;;;;;;;24.19;51.95;100702.81;10381254;28;20053;-65
2023/09/06 08:42:55;;;;;;;3.47;2.28;;;;;;;24.37;51.74;100704.16;10348103;28;20056;-65
2023/09/06 08:47:57;;;;;;;2.45;2.10;;;;;;;24.53;51.21;100699.16;10331828;28;20527;-66
2023/09/06 08:53:00;;;;;;;3.50;2.73;;;;;;;24.88;49.62;100698.22;10342693;28;20049;-65
2023/09/06 08:58:05;;;;;;;2.70;2.22;;;;;;;25.13;49.50;100698.47;10329078;28;20045;-66
2023/09/06 09:03:07;;;;;;;3.58;2.30;;;;;;;25.27;48.23;100693.84;10347465;28;20057;-66
2023/09/06 09:08:09;;;;;;;5.00;2.92;;;;;;;25.41;46.86;100701.00;10344977;28;20061;-65
2023/09/06 09:13:15;;;;;;;3.00;2.72;;;;;;;25.52;46.47;100705.00;10342496;28;20273;-64
2023/09/06 09:18:17;;;;;;;2.67;2.45;;;;;;;25.67;46.47;100696.56;10327761;28;20685;-66
2023/09/06 09:23:18;;;;;;;2.92;2.50;;;;;;;25.84;45.57;100694.22;10336120;28;20075;-65
2023/09/06 09:28:20;;;;;;;4.03;3.00;;;;;;;25.99;44.91;100685.00;10341657;28;20702;-64
2023/09/06 09:33:26;;;;;;;3.40;2.73;;;;;;;26.19;44.66;100684.91;10327149;28;20068;-66
2023/09/06 09:38:28;;;;;;;2.95;2.28;;;;;;;26.45;43.87;100683.94;10333522;28;20057;-66
2023/09/06 09:43:30;;;;;;;3.30;2.63;;;;;;;26.54;43.92;100669.00;10341827;28;20045;-66
2023/09/06 09:48:33;;;;;;;3.47;2.50;;;;;;;26.76;42.58;100674.94;10329535;28;20060;-64
2023/09/06 09:53:35;;;;;;;3.57;2.70;;;;;;;26.92;43.07;100667.31;10341409;28;20073;-67
2023/09/06 09:58:39;;;;;;;3.90;3.10;;;;;;;27.22;43.17;100666.59;10339901;28;20064;-66
2023/09/06 10:03:43;;;;;;;3.08;2.83;;;;;;;27.41;41.90;100664.78;10325865;28;20409;-66
2023/09/06 10:08:47;;;;;;;3.30;3.00;;;;;;;27.46;42.75;100651.31;10325485;28;20046;-67
2023/09/06 10:13:50;;;;;;;2.47;2.25;;;;;;;27.72;41.00;100660.28;10341118;28;20410;-65
2023/09/06 10:18:51;;;;;;;2.58;2.35;;;;;;;28.14;41.70;100654.97;10342122;28;20157;-66
2023/09/06 10:23:54;;;;;;;2.93;2.40;;;;;;;28.19;39.79;100646.88;10338062;28;20061;-68
2023/09/06 10:28:59;;;;;;;2.33;2.10;;;;;;;28.29;40.96;100654.56;10339248;28;20141;-66
2023/09/06 10:34:01;;;;;;;2.90;2.60;;;;;;;28.58;40.76;100652.88;10321564;28;20124;-66
2023/09/06 10:39:04;;;;;;;3.07;2.33;;;;;;;28.77;39.95;100639.97;10340497;28;20800;-66
2023/09/06 10:44:12;;;;;;;2.78;2.17;;;;;;;28.89;38.98;100632.59;10337199;28;20053;-65
2023/09/06 10:49:23;;;;;;;3.28;2.45;;;;;;;29.13;39.42;100631.81;10343292;28;20056;-65
2023/09/06 10:54:38;;;;;;;2.90;2.33;;;;;;;29.26;37.65;100606.94;10323825;28;20140;-65
2023/09/06 10:59:45;;;;;;;3.15;2.45;;;;;;;29.61;38.04;100623.31;10341015;28;20049;-64
2023/09/06 11:04:46;;;;;;;2.90;2.50;;;;;;;29.89;36.74;100612.69;10334113;28;20282;-65
2023/09/06 11:09:50;;;;;;;2.80;2.35;;;;;;;30.19;37.24;100620.69;10335665;28;20061;-65
2023/09/06 11:14:54;;;;;;;4.28;2.60;;;;;;;30.48;36.49;100618.78;10335610;28;20053;-66
2023/09/06 11:20:12;;;;;;;3.83;2.60;;;;;;;30.85;36.45;100625.72;10328287;28;20061;-65
2023/09/06 11:25:21;;;;;;;3.25;3.00;;;;;;;31.16;34.47;100610.56;10331737;28;20058;-66
2023/09/06 11:30:23;;;;;;;3.13;2.83;;;;;;;31.26;34.65;100603.59;10334135;28;20504;-65
2023/09/06 11:35:31;;;;;;;2.72;2.42;;;;;;;31.60;35.52;100604.31;10332946;28;20123;-67
2023/09/06 11:40:34;;;;;;;2.40;2.20;;;;;;;32.00;34.47;100597.66;10324147;28;20180;-66
2023/09/06 11:45:37;;;;;;;2.97;2.67;;;;;;;32.29;32.33;100589.16;10337001;28;20049;-65
2023/09/06 11:50:40;;;;;;;3.00;2.65;;;;;;;32.60;32.32;100592.22;10340239;28;20418;-65
2023/09/06 11:55:45;;;;;;;3.05;2.65;;;;;;;32.73;33.06;100583.53;10338870;28;20389;-65
2023/09/06 12:00:50;;;;;;;2.80;2.35;;;;;;;33.20;32.24;100575.63;10337198;28;20107;-65
2023/09/06 12:05:55;;;;;;;2.80;2.47;;;;;;;33.41;31.71;100582.06;10338070;28;20150;-66
2023/09/06 12:11:06;;;;;;;3.28;2.20;;;;;;;33.72;31.10;100572.00;10341468;28;20046;-67
2023/09/06 12:16:09;;;;;;;4.15;2.13;;;;;;;33.76;30.55;100553.81;10336813;28;20157;-65
2023/09/06 12:21:11;;;;;;;6.15;3.22;;;;;;;33.76;29.95;100562.09;10338146;28;20708;-66
2023/09/06 12:26:15;;;;;;;4.25;2.42;;;;;;;33.87;30.77;100557.44;10322464;28;20049;-65
2023/09/06 12:31:16;;;;;;;3.25;2.22;;;;;;;34.37;29.64;100541.25;10339090;28;20095;-65
2023/09/06 12:36:18;;;;;;;2.33;2.13;;;;;;;35.12;28.33;100537.03;10337284;28;20061;-66
2023/09/06 12:41:20;;;;;;;2.88;2.58;;;;;;;34.93;28.92;100528.50;10339919;28;20563;-66
2023/09/06 12:46:21;;;;;;;3.25;2.33;;;;;;;34.82;28.33;100534.06;10336616;28;20061;-65
2023/09/06 12:51:23;;;;;;;4.07;2.30;;;;;;;34.60;28.85;100516.91;10325028;28;20061;-66
2023/09/06 12:56:25;;;;;;;3.22;1.95;;;;;;;34.34;29.54;100511.41;10337004;28;20065;-66
2023/09/06 13:01:26;;;;;;;3.75;2.47;;;;;;;34.26;29.12;100515.56;10335318;28;20863;-67
2023/09/06 13:06:28;;;;;;;2.80;2.53;;;;;;;34.32;30.18;100510.84;10337373;28;20590;-65
2023/09/06 13:11:29;;;;;;;3.17;1.98;;;;;;;34.10;28.95;100509.16;10344416;28;20820;-66
2023/09/06 13:16:31;;;;;;;3.00;2.30;;;;;;;33.73;29.83;100503.84;10345958;28;20172;-63
2023/09/06 13:21:33;;;;;;;3.05;2.00;;;;;;;33.46;30.79;100502.94;10340652;28;20142;-65
2023/09/06 13:26:35;;;;;;;2.80;2.22;;;;;;;33.30;31.12;100491.00;10315004;28;20053;-64
2023/09/06 13:31:37;;;;;;;;;;;;;;;33.33;31.49;100491.53;10343493;28;20064;-64
2023/09/06 13:36:38;;;;;;;2.30;2.10;;;;;;;33.06;30.93;100459.41;10342639;28;19928;-65
2023/09/06 13:41:40;;;;;;;;;;;;;;;33.04;31.93;100475.41;10338636;28;20156;-64
2023/09/06 13:46:42;;;;;;;4.63;2.17;;;;;;;32.97;31.31;100467.38;10344627;28;19925;-65
2023/09/06 13:51:44;;;;;;;3.83;2.65;;;;;;;32.70;31.63;100464.72;10342995;28;20053;-65
2023/09/06 13:56:49;;;;;;;3.38;2.15;;;;;;;32.42;32.21;100459.28;10338980;28;20053;-67
2023/09/06 14:01:51;;;;;;;3.20;1.90;;;;;;;32.20;32.16;100458.56;10327769;28;20170;-66
2023/09/06 14:06:54;;;;;;;2.30;2.10;;;;;;;31.97;30.76;100455.03;10341262;28;20105;-65
2023/09/06 14:11:55;;;;;;;2.17;1.77;;;;;;;31.75;32.06;100459.78;10326979;28;20072;-65
2023/09/06 14:16:57;;;;;;;;;;;;;;;31.59;31.80;100467.03;10328795;28;20057;-66
2023/09/06 14:21:59;;;;;;;3.25;2.10;;;;;;;31.45;32.10;100458.34;10327329;28;19920;-66
2023/09/06 14:27:03;;;;;;;2.03;1.83;;;;;;;31.26;32.76;100461.44;10330018;28;20090;-67
2023/09/06 14:32:06;;;;;;;3.05;2.05;;;;;;;31.13;33.08;100457.13;10317619;28;20072;-65
2023/09/06 14:37:07;;;;;;;2.72;2.53;;;;;;;30.88;33.41;100443.84;10337598;28;20424;-66
2023/09/06 14:42:09;;;;;;;3.58;2.40;;;;;;;30.71;32.96;100443.09;10338650;28;20149;-65
2023/09/06 14:47:11;;;;;;;1.92;1.75;;;;;;;30.55;33.13;100444.75;10336782;28;20084;-64
2023/09/06 14:52:13;;;;;;;2.80;2.20;;;;;;;30.42;33.61;100441.28;10319841;28;20219;-65
2023/09/06 14:57:16;;;;;;;1.80;1.70;;;;;;;30.29;33.24;100441.59;10336048;28;20080;-65
2023/09/06 15:02:17;;;;;;;2.13;1.88;;;;;;;30.11;33.56;100428.97;10338335;28;20267;-64
2023/09/06 15:07:19;;;;;;;3.83;2.07;;;;;;;30.04;33.50;100442.84;10344757;28;20676;-64
2023/09/06 15:12:21;;;;;;;4.07;2.33;;;;;;;29.91;33.65;100435.75;10341510;28;20469;-65
2023/09/06 15:17:22;;;;;;;2.92;2.15;;;;;;;29.82;33.77;100441.91;10336926;28;20195;-65
2023/09/06 15:22:24;;;;;;;2.38;2.05;;;;;;;29.71;33.57;100418.91;10336468;28;20057;-64
2023/09/06 15:27:40;;;;;;;2.10;1.90;;;;;;;29.60;33.99;100418.72;10335618;28;20683;-66
2023/09/06 15:32:42;;;;;;;2.35;2.05;;;;;;;29.51;33.84;100409.22;10321159;28;20074;-65
2023/09/06 15:38:11;;;;;;;2.28;1.98;;;;;;;29.51;33.79;100417.44;10340948;28;20057;-64
2023/09/06 15:43:12;;;;;;;2.85;2.10;;;;;;;29.40;34.22;100423.81;10338812;28;20064;-72
2023/09/06 15:48:14;;;;;;;2.30;2.10;;;;;;;29.35;34.32;100423.72;10336146;28;20052;-65
2023/09/06 15:53:15;;;;;;;3.20;2.17;;;;;;;29.30;33.97;100424.44;10322421;28;20345;-65
2023/09/06 15:58:16;;;;;;;3.37;2.20;;;;;;;29.18;34.63;100408.00;10340109;28;20053;-65
2023/09/06 16:03:18;;;;;;;3.00;1.90;;;;;;;29.22;34.75;100411.97;10339422;28;20637;-67
2023/09/06 16:08:19;;;;;;;3.70;2.50;;;;;;;29.17;34.92;100414.59;10333663;28;20108;-66
2023/09/06 16:13:21;;;;;;;2.53;2.33;;;;;;;29.03;35.04;100407.69;10337962;28;20053;-65
2023/09/06 16:18:22;;;;;;;2.83;2.28;;;;;;;29.02;35.84;100417.00;10342867;28;20179;-66
2023/09/06 16:23:24;;;;;;;3.37;2.10;;;;;;;28.93;35.97;100411.09;10341209;28;20084;-66
2023/09/06 16:28:26;;;;;;;2.60;2.33;;;;;;;28.95;36.35;100414.41;10339920;28;20060;-66
2023/09/06 16:33:28;;;;;;;2.30;2.10;;;;;;;28.86;36.78;100416.66;10332314;28;20057;-66
2023/09/06 16:38:29;;;;;;;3.78;2.72;;;;;;;28.74;36.99;100403.00;10341061;28;20607;-66
2023/09/06 16:43:31;;;;;;;3.83;2.10;;;;;;;28.70;37.02;100412.75;10342558;28;20057;-65
2023/09/06 16:48:33;;;;;;;2.10;1.90;;;;;;;28.68;37.43;100411.34;10343805;28;20096;-65
2023/09/06 16:53:35;;;;;;;;;;;;;;;28.63;37.88;100406.59;10330407;28;20068;-64
2023/09/06 16:58:37;;;;;;;2.78;2.28;;;;;;;28.60;37.78;100403.50;10330653;28;19960;-66
2023/09/06 17:03:38;;;;;;;;;;;;;;;28.53;38.21;100398.94;10345651;28;20061;-65
2023/09/06 17:08:40;;;;;;;3.13;2.83;;;;;;;28.46;38.15;100416.56;10347920;28;19924;-65
2023/09/06 17:13:42;;;;;;;2.30;1.90;;;;;;;28.39;38.27;100408.47;10346552;28;20049;-64
2023/09/06 17:18:44;;;;;;;4.10;3.42;;;;;;;28.30;38.70;100401.69;10344789;28;20065;-65
2023/09/06 17:24:02;;;;;;;4.28;2.75;;;;;;;28.27;38.68;100404.88;10333543;28;20053;-66
2023/09/06 17:29:05;;;;;;;3.40;2.50;;;;;;;28.16;38.88;100401.91;10325649;28;20050;-65
2023/09/06 17:34:08;;;;;;;4.40;2.95;;;;;;;28.11;39.24;100406.44;10339152;28;26060;-65
2023/09/06 17:39:11;;;;;;;;;;;;;;;28.03;40.09;100400.25;10331767;28;20049;-66
2023/09/06 17:44:13;;;;;;;5.63;4.30;;;;;;;27.92;40.15;100402.91;10347265;28;19932;-66
2023/09/06 17:49:15;;;;;;;5.20;3.08;;;;;;;27.86;40.43;100402.81;10346879;28;20115;-64
2023/09/06 17:54:22;;;;;;;4.28;3.15;;;;;;;27.75;40.59;100414.53;10342817;28;20045;-65
2023/09/06 17:59:24;;;;;;;2.65;2.25;;;;;;;27.65;41.03;100414.25;10331837;28;20126;-65
2023/09/06 18:04:26;;;;;;;2.67;2.47;;;;;;;27.59;41.11;100421.47;10343340;28;20053;-66
2023/09/06 18:09:33;;;;;;;4.05;3.00;;;;;;;27.49;41.35;100419.31;10329310;28;20060;-65
2023/09/06 18:14:34;;;;;;;5.88;3.53;;;;;;;27.35;41.18;100420.56;10344457;28;20046;-67
2023/09/06 18:19:36;;;;;;;6.40;4.82;;;;;;;27.26;41.44;100425.50;10329922;28;20179;-65
2023/09/06 18:24:37;;;;;;;8.93;7.00;;;;;;;27.21;42.51;100427.25;10339170;28;20059;-65
2023/09/06 18:29:41;;;;;;;7.03;5.22;;;;;;;27.16;43.08;100438.88;10345340;28;20050;-66
2023/09/06 18:34:43;;;;;;;4.70;3.60;;;;;;;27.08;43.02;100440.00;10340100;28;20049;-67
2023/09/06 18:39:47;;;;;;;6.57;3.92;;;;;;;26.99;43.24;100438.63;10328041;28;20549;-66
2023/09/06 18:44:48;;;;;;;4.82;3.53;;;;;;;26.88;43.83;100439.41;10338308;28;20735;-66
2023/09/06 18:49:51;;;;;;;3.83;3.08;;;;;;;26.75;43.83;100432.16;10340956;28;20279;-65
2023/09/06 18:54:53;;;;;;;4.20;3.20;;;;;;;26.74;43.83;100453.19;10340362;28;20068;-65
2023/09/06 18:59:54;;;;;;;4.05;3.13;;;;;;;26.66;43.77;100450.69;10339675;28;20080;-65
2023/09/06 19:04:56;;;;;;;4.13;2.88;;;;;;;26.60;44.60;100451.59;10343929;28;20585;-65
2023/09/06 19:09:58;;;;;;;5.05;3.80;;;;;;;26.45;43.79;100450.06;10342893;28;20064;-65
2023/09/06 19:15:00;;;;;;;5.13;3.37;;;;;;;26.38;44.17;100462.13;10326582;28;20071;-65
2023/09/06 19:20:02;;;;;;;4.00;3.60;;;;;;;26.34;44.65;100463.59;10343967;28;20050;-65
2023/09/06 19:25:07;;;;;;;7.50;4.35;;;;;;;26.28;45.25;100470.78;10345534;28;20081;-66
2023/09/06 19:30:09;;;;;;;4.25;3.80;;;;;;;26.16;44.72;100461.66;10326589;28;20041;-66
2023/09/06 19:35:11;;;;;;;5.53;3.50;;;;;;;26.14;44.84;100463.75;10321828;28;20488;-65
2023/09/06 19:40:12;;;;;;;4.18;3.13;;;;;;;26.13;45.12;100468.38;10319745;28;20055;-66
2023/09/06 19:45:14;;;;;;;4.20;2.70;;;;;;;26.01;44.61;100468.25;10317364;28;20049;-67
2023/09/06 19:50:15;;;;;;;3.60;2.65;;;;;;;26.00;44.22;100472.06;10335904;28;20057;-66
2023/09/06 19:55:19;;;;;;;3.15;2.67;;;;;;;25.87;44.05;100458.47;10316575;28;20428;-65
2023/09/06 20:00:20;;;;;;;3.55;2.47;;;;;;;25.91;44.15;100481.50;10321686;28;20068;-65
2023/09/06 20:05:24;;;;;;;4.05;2.60;;;;;;;25.84;44.46;100469.81;10337629;28;20096;-64
2023/09/06 20:10:25;;;;;;;2.45;2.22;;;;;;;25.79;44.09;100481.34;10336417;28;20057;-65
2023/09/06 20:15:26;;;;;;;2.70;2.13;;;;;;;25.70;44.80;100475.34;10339157;28;20057;-66
2023/09/06 20:20:28;;;;;;;4.95;2.70;;;;;;;25.66;44.50;100474.09;10348287;28;20057;-64
2023/09/06 20:25:30;;;;;;;3.58;2.38;;;;;;;25.61;44.42;100484.81;10346678;28;20053;-65
2023/09/06 20:30:36;;;;;;;3.50;2.35;;;;;;;25.52;45.90;100475.22;10346405;28;20090;-67
2023/09/06 20:35:40;;;;;;;3.53;2.33;;;;;;;25.49;45.40;100486.53;10327808;28;20058;-65
2023/09/06 20:40:41;;;;;;;2.58;1.83;;;;;;;25.43;46.07;100484.69;10318069;28;20066;-67
2023/09/06 20:45:44;;;;;;;2.25;2.05;;;;;;;25.33;46.30;100480.53;10342419;28;20062;-67
2023/09/06 20:50:50;;;;;;;2.40;2.20;;;;;;;25.32;46.16;100484.31;10341080;28;20095;-67
2023/09/06 20:55:52;;;;;;;2.50;2.30;;;;;;;25.29;46.87;100498.34;10344674;28;20050;-66
2023/09/06 21:00:56;;;;;;;3.35;2.30;;;;;;;25.23;46.70;100497.28;10343780;28;20058;-66
2023/09/06 21:05:59;;;;;;;2.60;2.40;;;;;;;25.18;46.95;100507.19;10330508;28;20073;-66
2023/09/06 21:11:01;;;;;;;3.25;2.58;;;;;;;25.06;47.03;100487.94;10336654;28;20148;-65
2023/09/06 21:16:04;;;;;;;2.92;2.25;;;;;;;25.08;47.27;100501.34;10344859;28;20148;-67
2023/09/06 21:21:06;;;;;;;2.88;2.33;;;;;;;24.95;47.09;100489.44;10347240;28;20061;-67
2023/09/06 21:26:08;;;;;;;2.63;2.40;;;;;;;24.83;47.75;100485.66;10343991;28;20248;-66
2023/09/06 21:31:09;;;;;;;3.50;2.47;;;;;;;24.85;47.64;100505.38;10347992;28;20057;-68
2023/09/06 21:36:12;;;;;;;2.75;2.17;;;;;;;24.81;47.51;100504.09;10340828;28;20048;-68
2023/09/06 21:41:14;;;;;;;2.55;2.22;;;;;;;24.75;46.88;100510.41;10343197;28;21024;-68
2023/09/06 21:46:15;;;;;;;1.98;1.73;;;;;;;24.67;47.28;100514.19;10337384;28;20626;-68
2023/09/06 21:51:17;;;;;;;4.30;2.25;;;;;;;24.49;47.57;100496.56;10353978;28;20067;-70
2023/09/06 21:56:19;;;;;;;4.68;1.88;;;;;;;24.56;47.51;100520.19;10342750;28;20049;-69
2023/09/06 22:01:21;;;;;;;2.22;1.88;;;;;;;24.51;47.62;100521.66;10349725;28;20058;-68
2023/09/06 22:06:22;;;;;;;3.67;2.17;;;;;;;24.45;47.53;100524.38;10350387;28;20061;-68
2023/09/06 22:11:24;;;;;;;2.22;2.03;;;;;;;24.38;48.35;100523.53;10347578;28;20064;-68
2023/09/06 22:16:25;;;;;;;2.80;2.40;;;;;;;24.32;48.22;100527.94;10373410;28;20060;-70
2023/09/06 22:21:27;;;;;;;2.55;2.20;;;;;;;24.20;48.49;100522.28;10396716;28;20052;-68
2023/09/06 22:26:29;;;;;;;3.40;2.00;;;;;;;24.15;48.30;100527.50;10356675;28;20053;-68
2023/09/06 22:31:30;;;;;;;4.32;2.60;;;;;;;24.08;48.49;100527.50;10352803;28;20054;-71
2023/09/06 22:36:33;;;;;;;4.60;2.20;;;;;;;24.00;48.50;100520.38;10341360;28;20056;-68
2023/09/06 22:41:35;;;;;;;3.70;2.30;;;;;;;24.00;48.11;100524.94;10353796;28;20244;-70
2023/09/06 22:46:36;;;;;;;3.22;2.00;;;;;;;23.95;48.54;100527.47;10356449;28;20069;-67
2023/09/06 22:51:42;;;;;;;2.58;2.38;;;;;;;23.89;48.52;100523.66;10354160;28;20052;-68
2023/09/06 22:56:44;;;;;;;3.15;2.85;;;;;;;23.85;48.56;100527.84;10342955;28;20065;-68
2023/09/06 23:01:46;;;;;;;3.60;2.07;;;;;;;23.73;48.62;100518.56;10339881;28;20132;-69
2023/09/06 23:06:47;;;;;;;2.63;2.08;;;;;;;23.77;48.50;100541.59;10353196;28;20311;-70
2023/09/06 23:12:03;;;;;;;2.00;1.80;;;;;;;23.68;49.15;100545.53;10349773;28;22169;-69
2023/09/06 23:17:07;;;;;;;2.70;2.38;;;;;;;23.63;49.13;100544.25;10348693;28;20140;-69